sensor_id;sensor_type;location;lat;lon;timestamp;P1;durP1;ratioP1;P2;durP2;ratioP2
33738;SDS011;20063;51.730;11.110;2022-07-29T00:02:12;9.75;;;1.80;;
33738;SDS011;20063;51.730;11.110;2022-07-29T00:04:38;9.43;;;1.60;;
33738;SDS011;20063;51.730;11.110;2022-07-29T00:07:04;6.47;;;1.42;;
33738;SDS011;20063;51.730;11.110;2022-07-29T00:09:30;4.05;;;1.60;;
33738;SDS011;20063;51.730;11.110;2022-07-29T00:11:56;2.83;;;1.58;;
33738;SDS011;20063;51.730;11.110;2022-07-29T00:14:25;8.48;;;2.00;;
33738;SDS011;20063;51.730;11.110;2022-07-29T00:16:52;2.47;;;1.23;;
33738;SDS011;20063;51.730;11.110;2022-07-29T00:19:18;8.82;;;1.73;;
33738;SDS011;20063;51.730;11.110;2022-07-29T00:21:44;5.75;;;1.70;;
33738;SDS011;20063;51.730;11.110;2022-07-29T00:24:09;4.18;;;1.30;;
33738;SDS011;20063;51.730;11.110;2022-07-29T00:26:35;5.30;;;1.90;;
33738;SDS011;20063;51.730;11.110;2022-07-29T00:29:01;8.90;;;1.50;;
33738;SDS011;20063;51.730;11.110;2022-07-29T00:31:28;8.13;;;1.92;;
33738;SDS011;20063;51.730;11.110;2022-07-29T00:33:55;5.20;;;1.80;;
33738;SDS011;20063;51.730;11.110;2022-07-29T00:36:21;5.72;;;1.65;;
33738;SDS011;20063;51.730;11.110;2022-07-29T00:38:47;11.00;;;1.90;;
33738;SDS011;20063;51.730;11.110;2022-07-29T00:41:13;11.93;;;1.95;;
33738;SDS011;20063;51.730;11.110;2022-07-29T00:43:40;4.82;;;1.98;;
33738;SDS011;20063;51.730;11.110;2022-07-29T00:46:06;3.92;;;1.80;;
33738;SDS011;20063;51.730;11.110;2022-07-29T00:48:31;4.90;;;1.98;;
33738;SDS011;20063;51.730;11.110;2022-07-29T00:50:57;10.35;;;2.53;;
33738;SDS011;20063;51.730;11.110;2022-07-29T00:53:24;11.48;;;2.55;;
33738;SDS011;20063;51.730;11.110;2022-07-29T00:55:50;5.25;;;1.60;;
33738;SDS011;20063;51.730;11.110;2022-07-29T00:58:18;2.80;;;1.30;;
33738;SDS011;20063;51.730;11.110;2022-07-29T01:00:44;11.07;;;2.53;;
33738;SDS011;20063;51.730;11.110;2022-07-29T01:03:11;5.70;;;2.25;;
33738;SDS011;20063;51.730;11.110;2022-07-29T01:05:36;4.47;;;1.98;;
33738;SDS011;20063;51.730;11.110;2022-07-29T01:08:02;8.20;;;2.58;;
33738;SDS011;20063;51.730;11.110;2022-07-29T01:10:28;3.28;;;1.83;;
33738;SDS011;20063;51.730;11.110;2022-07-29T01:12:55;4.30;;;1.60;;
33738;SDS011;20063;51.730;11.110;2022-07-29T01:15:23;8.88;;;1.77;;
33738;SDS011;20063;51.730;11.110;2022-07-29T01:18:03;7.28;;;1.70;;
33738;SDS011;20063;51.730;11.110;2022-07-29T01:20:55;8.82;;;2.30;;
33738;SDS011;20063;51.730;11.110;2022-07-29T01:23:47;2.65;;;1.35;;
33738;SDS011;20063;51.730;11.110;2022-07-29T01:32:10;3.83;;;1.65;;
33738;SDS011;20063;51.730;11.110;2022-07-29T01:37:26;13.23;;;2.15;;
33738;SDS011;20063;51.730;11.110;2022-07-29T01:39:58;3.33;;;2.05;;
33738;SDS011;20063;51.730;11.110;2022-07-29T01:42:27;3.15;;;1.67;;
33738;SDS011;20063;51.730;11.110;2022-07-29T01:47:40;5.18;;;1.60;;
33738;SDS011;20063;51.730;11.110;2022-07-29T01:50:10;5.35;;;2.00;;
33738;SDS011;20063;51.730;11.110;2022-07-29T01:52:42;4.47;;;2.10;;
33738;SDS011;20063;51.730;11.110;2022-07-29T01:55:14;4.40;;;1.92;;
33738;SDS011;20063;51.730;11.110;2022-07-29T01:57:46;11.15;;;2.60;;
33738;SDS011;20063;51.730;11.110;2022-07-29T02:00:13;7.05;;;1.80;;
33738;SDS011;20063;51.730;11.110;2022-07-29T02:02:40;9.75;;;1.75;;
33738;SDS011;20063;51.730;11.110;2022-07-29T02:05:09;5.47;;;1.63;;
33738;SDS011;20063;51.730;11.110;2022-07-29T02:07:39;11.35;;;2.08;;
33738;SDS011;20063;51.730;11.110;2022-07-29T02:10:06;5.80;;;1.80;;
33738;SDS011;20063;51.730;11.110;2022-07-29T02:12:33;5.32;;;1.85;;
33738;SDS011;20063;51.730;11.110;2022-07-29T02:15:02;2.13;;;1.50;;
33738;SDS011;20063;51.730;11.110;2022-07-29T02:17:38;6.32;;;1.90;;
33738;SDS011;20063;51.730;11.110;2022-07-29T02:20:13;7.03;;;2.22;;
33738;SDS011;20063;51.730;11.110;2022-07-29T02:22:39;9.50;;;2.70;;
33738;SDS011;20063;51.730;11.110;2022-07-29T02:25:06;3.10;;;1.42;;
33738;SDS011;20063;51.730;11.110;2022-07-29T02:27:33;9.60;;;2.25;;
33738;SDS011;20063;51.730;11.110;2022-07-29T02:30:00;5.97;;;1.55;;
33738;SDS011;20063;51.730;11.110;2022-07-29T02:32:27;4.07;;;1.48;;
33738;SDS011;20063;51.730;11.110;2022-07-29T02:34:55;4.13;;;1.50;;
33738;SDS011;20063;51.730;11.110;2022-07-29T02:37:23;1.52;;;1.02;;
33738;SDS011;20063;51.730;11.110;2022-07-29T02:39:49;3.17;;;1.63;;
33738;SDS011;20063;51.730;11.110;2022-07-29T02:42:18;1.90;;;1.40;;
33738;SDS011;20063;51.730;11.110;2022-07-29T02:44:45;3.65;;;1.52;;
33738;SDS011;20063;51.730;11.110;2022-07-29T02:47:13;5.68;;;1.70;;
33738;SDS011;20063;51.730;11.110;2022-07-29T02:52:39;7.65;;;1.77;;
33738;SDS011;20063;51.730;11.110;2022-07-29T02:58:38;6.85;;;1.60;;
33738;SDS011;20063;51.730;11.110;2022-07-29T03:01:11;7.10;;;1.65;;
33738;SDS011;20063;51.730;11.110;2022-07-29T03:03:40;3.27;;;1.57;;
33738;SDS011;20063;51.730;11.110;2022-07-29T03:06:12;2.33;;;1.25;;
33738;SDS011;20063;51.730;11.110;2022-07-29T03:08:39;6.57;;;2.08;;
33738;SDS011;20063;51.730;11.110;2022-07-29T03:11:07;5.32;;;1.75;;
33738;SDS011;20063;51.730;11.110;2022-07-29T03:13:34;5.18;;;1.27;;
33738;SDS011;20063;51.730;11.110;2022-07-29T03:16:00;2.47;;;1.30;;
33738;SDS011;20063;51.730;11.110;2022-07-29T03:18:26;6.05;;;1.40;;
33738;SDS011;20063;51.730;11.110;2022-07-29T03:20:52;4.13;;;1.67;;
33738;SDS011;20063;51.730;11.110;2022-07-29T03:23:21;5.47;;;2.40;;
33738;SDS011;20063;51.730;11.110;2022-07-29T03:25:52;6.03;;;1.75;;
33738;SDS011;20063;51.730;11.110;2022-07-29T03:28:17;8.00;;;1.58;;
33738;SDS011;20063;51.730;11.110;2022-07-29T03:30:45;11.82;;;2.08;;
33738;SDS011;20063;51.730;11.110;2022-07-29T03:33:11;5.28;;;1.58;;
33738;SDS011;20063;51.730;11.110;2022-07-29T03:35:37;9.02;;;2.10;;
33738;SDS011;20063;51.730;11.110;2022-07-29T03:38:02;3.53;;;1.52;;
33738;SDS011;20063;51.730;11.110;2022-07-29T03:40:33;2.50;;;1.40;;
33738;SDS011;20063;51.730;11.110;2022-07-29T03:43:03;5.30;;;1.70;;
33738;SDS011;20063;51.730;11.110;2022-07-29T03:45:30;1.80;;;1.20;;
33738;SDS011;20063;51.730;11.110;2022-07-29T03:48:02;4.25;;;1.40;;
33738;SDS011;20063;51.730;11.110;2022-07-29T03:50:33;5.55;;;1.85;;
33738;SDS011;20063;51.730;11.110;2022-07-29T03:53:00;6.25;;;1.85;;
33738;SDS011;20063;51.730;11.110;2022-07-29T03:55:26;1.77;;;1.40;;
33738;SDS011;20063;51.730;11.110;2022-07-29T03:57:54;4.88;;;1.80;;
33738;SDS011;20063;51.730;11.110;2022-07-29T04:00:22;7.25;;;2.15;;
33738;SDS011;20063;51.730;11.110;2022-07-29T04:02:50;3.13;;;1.42;;
33738;SDS011;20063;51.730;11.110;2022-07-29T04:05:16;4.88;;;1.77;;
33738;SDS011;20063;51.730;11.110;2022-07-29T04:07:45;1.80;;;1.27;;
33738;SDS011;20063;51.730;11.110;2022-07-29T04:10:12;2.70;;;1.38;;
33738;SDS011;20063;51.730;11.110;2022-07-29T04:12:38;4.07;;;1.73;;
33738;SDS011;20063;51.730;11.110;2022-07-29T04:15:04;3.65;;;1.67;;
33738;SDS011;20063;51.730;11.110;2022-07-29T04:17:30;3.38;;;1.55;;
33738;SDS011;20063;51.730;11.110;2022-07-29T04:19:55;5.72;;;1.50;;
33738;SDS011;20063;51.730;11.110;2022-07-29T04:22:21;6.50;;;1.77;;
33738;SDS011;20063;51.730;11.110;2022-07-29T04:24:48;7.40;;;1.65;;
33738;SDS011;20063;51.730;11.110;2022-07-29T04:27:13;11.10;;;1.80;;
33738;SDS011;20063;51.730;11.110;2022-07-29T04:29:39;6.65;;;1.73;;
33738;SDS011;20063;51.730;11.110;2022-07-29T04:32:05;6.45;;;1.65;;
33738;SDS011;20063;51.730;11.110;2022-07-29T04:34:30;4.25;;;1.80;;
33738;SDS011;20063;51.730;11.110;2022-07-29T04:36:57;2.17;;;1.65;;
33738;SDS011;20063;51.730;11.110;2022-07-29T04:39:23;1.42;;;0.98;;
33738;SDS011;20063;51.730;11.110;2022-07-29T04:41:49;3.67;;;1.20;;
33738;SDS011;20063;51.730;11.110;2022-07-29T04:44:15;3.35;;;1.48;;
33738;SDS011;20063;51.730;11.110;2022-07-29T04:46:41;5.90;;;1.55;;
33738;SDS011;20063;51.730;11.110;2022-07-29T04:49:06;2.75;;;1.35;;
33738;SDS011;20063;51.730;11.110;2022-07-29T04:51:33;2.38;;;1.58;;
33738;SDS011;20063;51.730;11.110;2022-07-29T04:53:58;5.85;;;1.60;;
33738;SDS011;20063;51.730;11.110;2022-07-29T04:56:25;10.70;;;1.70;;
33738;SDS011;20063;51.730;11.110;2022-07-29T04:58:51;6.93;;;1.90;;
33738;SDS011;20063;51.730;11.110;2022-07-29T05:01:17;2.60;;;1.38;;
33738;SDS011;20063;51.730;11.110;2022-07-29T05:03:42;14.95;;;1.80;;
33738;SDS011;20063;51.730;11.110;2022-07-29T05:06:09;7.00;;;1.92;;
33738;SDS011;20063;51.730;11.110;2022-07-29T05:08:34;7.65;;;2.47;;
33738;SDS011;20063;51.730;11.110;2022-07-29T05:11:00;4.38;;;1.63;;
33738;SDS011;20063;51.730;11.110;2022-07-29T05:13:26;4.38;;;1.63;;
33738;SDS011;20063;51.730;11.110;2022-07-29T05:15:54;6.72;;;1.50;;
33738;SDS011;20063;51.730;11.110;2022-07-29T05:18:19;6.60;;;2.00;;
33738;SDS011;20063;51.730;11.110;2022-07-29T05:20:45;7.93;;;1.30;;
33738;SDS011;20063;51.730;11.110;2022-07-29T05:23:10;4.63;;;1.60;;
33738;SDS011;20063;51.730;11.110;2022-07-29T05:25:37;2.00;;;1.13;;
33738;SDS011;20063;51.730;11.110;2022-07-29T05:28:03;2.85;;;1.17;;
33738;SDS011;20063;51.730;11.110;2022-07-29T05:30:29;3.45;;;1.40;;
33738;SDS011;20063;51.730;11.110;2022-07-29T05:32:54;4.45;;;2.08;;
33738;SDS011;20063;51.730;11.110;2022-07-29T05:35:20;2.80;;;1.35;;
33738;SDS011;20063;51.730;11.110;2022-07-29T05:37:46;4.13;;;1.67;;
33738;SDS011;20063;51.730;11.110;2022-07-29T05:40:11;4.25;;;1.67;;
33738;SDS011;20063;51.730;11.110;2022-07-29T05:42:37;1.95;;;1.10;;
33738;SDS011;20063;51.730;11.110;2022-07-29T05:45:02;2.63;;;1.30;;
33738;SDS011;20063;51.730;11.110;2022-07-29T05:47:28;4.00;;;1.50;;
33738;SDS011;20063;51.730;11.110;2022-07-29T05:49:54;3.22;;;1.40;;
33738;SDS011;20063;51.730;11.110;2022-07-29T05:52:20;6.28;;;1.70;;
33738;SDS011;20063;51.730;11.110;2022-07-29T05:54:46;3.13;;;1.25;;
33738;SDS011;20063;51.730;11.110;2022-07-29T05:57:15;3.35;;;1.65;;
33738;SDS011;20063;51.730;11.110;2022-07-29T05:59:45;4.28;;;1.58;;
33738;SDS011;20063;51.730;11.110;2022-07-29T06:02:11;3.42;;;1.55;;
33738;SDS011;20063;51.730;11.110;2022-07-29T06:04:36;2.30;;;1.27;;
33738;SDS011;20063;51.730;11.110;2022-07-29T06:07:03;7.40;;;2.13;;
33738;SDS011;20063;51.730;11.110;2022-07-29T06:09:29;5.75;;;1.95;;
33738;SDS011;20063;51.730;11.110;2022-07-29T06:11:54;4.72;;;2.05;;
33738;SDS011;20063;51.730;11.110;2022-07-29T06:14:20;3.80;;;1.63;;
33738;SDS011;20063;51.730;11.110;2022-07-29T06:16:45;7.90;;;2.13;;
33738;SDS011;20063;51.730;11.110;2022-07-29T06:19:11;5.72;;;1.67;;
33738;SDS011;20063;51.730;11.110;2022-07-29T06:21:40;7.78;;;1.90;;
33738;SDS011;20063;51.730;11.110;2022-07-29T06:24:12;3.60;;;1.50;;
33738;SDS011;20063;51.730;11.110;2022-07-29T06:26:39;10.48;;;1.90;;
33738;SDS011;20063;51.730;11.110;2022-07-29T06:29:06;3.67;;;1.35;;
33738;SDS011;20063;51.730;11.110;2022-07-29T06:31:33;6.78;;;1.95;;
33738;SDS011;20063;51.730;11.110;2022-07-29T06:33:59;9.80;;;1.88;;
33738;SDS011;20063;51.730;11.110;2022-07-29T06:36:25;4.35;;;1.65;;
33738;SDS011;20063;51.730;11.110;2022-07-29T06:38:51;4.63;;;1.58;;
33738;SDS011;20063;51.730;11.110;2022-07-29T06:41:16;7.40;;;1.90;;
33738;SDS011;20063;51.730;11.110;2022-07-29T06:43:43;6.38;;;2.00;;
33738;SDS011;20063;51.730;11.110;2022-07-29T06:46:12;10.30;;;2.33;;
33738;SDS011;20063;51.730;11.110;2022-07-29T06:48:39;5.38;;;2.25;;
33738;SDS011;20063;51.730;11.110;2022-07-29T06:51:07;10.35;;;2.25;;
33738;SDS011;20063;51.730;11.110;2022-07-29T06:53:33;5.32;;;1.63;;
33738;SDS011;20063;51.730;11.110;2022-07-29T06:56:00;6.95;;;1.52;;
33738;SDS011;20063;51.730;11.110;2022-07-29T06:58:26;5.75;;;1.58;;
33738;SDS011;20063;51.730;11.110;2022-07-29T07:00:53;5.88;;;2.30;;
33738;SDS011;20063;51.730;11.110;2022-07-29T07:03:19;16.20;;;2.25;;
33738;SDS011;20063;51.730;11.110;2022-07-29T07:05:44;9.88;;;2.03;;
33738;SDS011;20063;51.730;11.110;2022-07-29T07:08:10;9.05;;;1.95;;
33738;SDS011;20063;51.730;11.110;2022-07-29T07:10:37;9.40;;;2.45;;
33738;SDS011;20063;51.730;11.110;2022-07-29T07:13:03;10.60;;;2.50;;
33738;SDS011;20063;51.730;11.110;2022-07-29T07:15:30;13.30;;;2.10;;
33738;SDS011;20063;51.730;11.110;2022-07-29T07:17:56;11.10;;;2.13;;
33738;SDS011;20063;51.730;11.110;2022-07-29T07:20:22;8.30;;;1.80;;
33738;SDS011;20063;51.730;11.110;2022-07-29T07:22:48;5.93;;;1.85;;
33738;SDS011;20063;51.730;11.110;2022-07-29T07:25:14;8.80;;;2.95;;
33738;SDS011;20063;51.730;11.110;2022-07-29T07:27:40;8.82;;;2.13;;
33738;SDS011;20063;51.730;11.110;2022-07-29T07:30:06;18.27;;;2.70;;
33738;SDS011;20063;51.730;11.110;2022-07-29T07:32:33;6.30;;;2.10;;
33738;SDS011;20063;51.730;11.110;2022-07-29T07:34:58;3.40;;;1.77;;
33738;SDS011;20063;51.730;11.110;2022-07-29T07:37:24;4.82;;;1.70;;
33738;SDS011;20063;51.730;11.110;2022-07-29T07:39:51;15.05;;;3.33;;
33738;SDS011;20063;51.730;11.110;2022-07-29T07:42:18;13.00;;;3.88;;
33738;SDS011;20063;51.730;11.110;2022-07-29T07:44:44;7.95;;;2.25;;
33738;SDS011;20063;51.730;11.110;2022-07-29T07:47:12;9.15;;;2.25;;
33738;SDS011;20063;51.730;11.110;2022-07-29T07:49:37;8.98;;;2.40;;
33738;SDS011;20063;51.730;11.110;2022-07-29T07:52:04;4.20;;;2.00;;
33738;SDS011;20063;51.730;11.110;2022-07-29T07:54:30;11.98;;;2.55;;
33738;SDS011;20063;51.730;11.110;2022-07-29T07:56:56;8.93;;;2.10;;
33738;SDS011;20063;51.730;11.110;2022-07-29T07:59:22;12.35;;;2.47;;
33738;SDS011;20063;51.730;11.110;2022-07-29T08:01:47;6.70;;;2.33;;
33738;SDS011;20063;51.730;11.110;2022-07-29T08:04:13;14.50;;;2.47;;
33738;SDS011;20063;51.730;11.110;2022-07-29T08:06:39;7.60;;;2.20;;
33738;SDS011;20063;51.730;11.110;2022-07-29T08:09:04;5.93;;;2.00;;
33738;SDS011;20063;51.730;11.110;2022-07-29T08:11:30;9.90;;;2.83;;
33738;SDS011;20063;51.730;11.110;2022-07-29T08:13:56;15.38;;;2.15;;
33738;SDS011;20063;51.730;11.110;2022-07-29T08:16:22;26.95;;;2.80;;
33738;SDS011;20063;51.730;11.110;2022-07-29T08:18:49;15.32;;;2.38;;
33738;SDS011;20063;51.730;11.110;2022-07-29T08:21:17;5.25;;;1.77;;
33738;SDS011;20063;51.730;11.110;2022-07-29T08:23:45;5.90;;;1.70;;
33738;SDS011;20063;51.730;11.110;2022-07-29T08:26:14;13.60;;;2.25;;
33738;SDS011;20063;51.730;11.110;2022-07-29T08:28:40;17.98;;;2.50;;
33738;SDS011;20063;51.730;11.110;2022-07-29T08:31:09;16.35;;;2.90;;
33738;SDS011;20063;51.730;11.110;2022-07-29T08:33:35;16.85;;;2.55;;
33738;SDS011;20063;51.730;11.110;2022-07-29T08:36:01;12.30;;;2.55;;
33738;SDS011;20063;51.730;11.110;2022-07-29T08:38:27;10.32;;;3.13;;
33738;SDS011;20063;51.730;11.110;2022-07-29T08:40:53;11.05;;;2.63;;
33738;SDS011;20063;51.730;11.110;2022-07-29T08:43:19;11.43;;;2.13;;
33738;SDS011;20063;51.730;11.110;2022-07-29T08:45:48;10.27;;;2.38;;
33738;SDS011;20063;51.730;11.110;2022-07-29T08:48:16;14.45;;;2.92;;
33738;SDS011;20063;51.730;11.110;2022-07-29T08:50:47;6.82;;;2.50;;
33738;SDS011;20063;51.730;11.110;2022-07-29T08:53:17;9.43;;;2.95;;
33738;SDS011;20063;51.730;11.110;2022-07-29T08:55:45;8.25;;;2.33;;
33738;SDS011;20063;51.730;11.110;2022-07-29T08:58:15;14.68;;;3.25;;
33738;SDS011;20063;51.730;11.110;2022-07-29T09:00:43;15.25;;;2.70;;
33738;SDS011;20063;51.730;11.110;2022-07-29T09:03:12;9.38;;;2.55;;
33738;SDS011;20063;51.730;11.110;2022-07-29T09:05:44;16.00;;;2.53;;
33738;SDS011;20063;51.730;11.110;2022-07-29T09:08:11;10.07;;;2.75;;
33738;SDS011;20063;51.730;11.110;2022-07-29T09:10:38;14.18;;;2.30;;
33738;SDS011;20063;51.730;11.110;2022-07-29T09:13:04;11.18;;;2.30;;
33738;SDS011;20063;51.730;11.110;2022-07-29T09:15:30;7.82;;;2.10;;
33738;SDS011;20063;51.730;11.110;2022-07-29T09:17:55;9.65;;;2.72;;
33738;SDS011;20063;51.730;11.110;2022-07-29T09:20:24;5.93;;;2.25;;
33738;SDS011;20063;51.730;11.110;2022-07-29T09:22:50;8.60;;;2.28;;
33738;SDS011;20063;51.730;11.110;2022-07-29T09:25:35;8.80;;;2.13;;
33738;SDS011;20063;51.730;11.110;2022-07-29T09:28:05;10.15;;;2.45;;
33738;SDS011;20063;51.730;11.110;2022-07-29T09:30:32;10.05;;;2.45;;
33738;SDS011;20063;51.730;11.110;2022-07-29T09:33:04;9.02;;;2.22;;
33738;SDS011;20063;51.730;11.110;2022-07-29T09:35:30;11.85;;;2.75;;
33738;SDS011;20063;51.730;11.110;2022-07-29T09:37:57;6.85;;;2.38;;
33738;SDS011;20063;51.730;11.110;2022-07-29T09:40:23;11.80;;;3.03;;
33738;SDS011;20063;51.730;11.110;2022-07-29T09:42:53;21.58;;;3.67;;
33738;SDS011;20063;51.730;11.110;2022-07-29T09:45:28;12.25;;;2.72;;
33738;SDS011;20063;51.730;11.110;2022-07-29T09:47:57;11.30;;;2.70;;
33738;SDS011;20063;51.730;11.110;2022-07-29T09:50:38;8.70;;;2.38;;
33738;SDS011;20063;51.730;11.110;2022-07-29T09:53:04;14.30;;;3.35;;
33738;SDS011;20063;51.730;11.110;2022-07-29T09:55:30;13.50;;;2.50;;
33738;SDS011;20063;51.730;11.110;2022-07-29T09:58:14;12.10;;;2.08;;
33738;SDS011;20063;51.730;11.110;2022-07-29T10:00:45;16.23;;;2.95;;
33738;SDS011;20063;51.730;11.110;2022-07-29T10:03:12;5.75;;;2.17;;
33738;SDS011;20063;51.730;11.110;2022-07-29T10:05:38;10.55;;;2.17;;
33738;SDS011;20063;51.730;11.110;2022-07-29T10:08:05;9.52;;;2.67;;
33738;SDS011;20063;51.730;11.110;2022-07-29T10:10:34;8.30;;;3.13;;
33738;SDS011;20063;51.730;11.110;2022-07-29T10:13:03;6.90;;;2.17;;
33738;SDS011;20063;51.730;11.110;2022-07-29T10:15:32;8.40;;;2.80;;
33738;SDS011;20063;51.730;11.110;2022-07-29T10:18:02;7.03;;;2.92;;
33738;SDS011;20063;51.730;11.110;2022-07-29T10:20:28;7.80;;;3.00;;
33738;SDS011;20063;51.730;11.110;2022-07-29T10:22:54;11.18;;;2.53;;
33738;SDS011;20063;51.730;11.110;2022-07-29T10:25:20;11.90;;;3.45;;
33738;SDS011;20063;51.730;11.110;2022-07-29T10:27:47;15.10;;;3.63;;
33738;SDS011;20063;51.730;11.110;2022-07-29T10:30:16;8.70;;;2.60;;
33738;SDS011;20063;51.730;11.110;2022-07-29T10:32:49;13.68;;;3.50;;
33738;SDS011;20063;51.730;11.110;2022-07-29T10:35:40;16.92;;;3.47;;
33738;SDS011;20063;51.730;11.110;2022-07-29T10:44:00;14.13;;;4.20;;
33738;SDS011;20063;51.730;11.110;2022-07-29T10:46:34;14.15;;;4.18;;
33738;SDS011;20063;51.730;11.110;2022-07-29T10:52:03;19.10;;;4.78;;
33738;SDS011;20063;51.730;11.110;2022-07-29T10:57:15;16.20;;;4.13;;
33738;SDS011;20063;51.730;11.110;2022-07-29T10:59:45;12.23;;;4.55;;
33738;SDS011;20063;51.730;11.110;2022-07-29T11:05:10;12.00;;;4.55;;
33738;SDS011;20063;51.730;11.110;2022-07-29T11:07:37;11.63;;;3.83;;
33738;SDS011;20063;51.730;11.110;2022-07-29T11:15:12;17.02;;;4.55;;
33738;SDS011;20063;51.730;11.110;2022-07-29T11:20:45;15.30;;;5.13;;
33738;SDS011;20063;51.730;11.110;2022-07-29T11:28:53;14.38;;;4.38;;
33738;SDS011;20063;51.730;11.110;2022-07-29T11:45:00;8.75;;;5.00;;
33738;SDS011;20063;51.730;11.110;2022-07-29T11:47:39;16.95;;;4.00;;
33738;SDS011;20063;51.730;11.110;2022-07-29T11:50:12;9.15;;;3.95;;
33738;SDS011;20063;51.730;11.110;2022-07-29T11:52:40;11.27;;;5.03;;
33738;SDS011;20063;51.730;11.110;2022-07-29T11:55:18;14.48;;;4.47;;
33738;SDS011;20063;51.730;11.110;2022-07-29T11:57:48;14.55;;;3.90;;
33738;SDS011;20063;51.730;11.110;2022-07-29T12:00:25;12.57;;;4.40;;
33738;SDS011;20063;51.730;11.110;2022-07-29T12:02:52;14.15;;;4.82;;
33738;SDS011;20063;51.730;11.110;2022-07-29T12:05:18;10.65;;;3.92;;
33738;SDS011;20063;51.730;11.110;2022-07-29T12:07:45;14.35;;;3.97;;
33738;SDS011;20063;51.730;11.110;2022-07-29T12:10:12;6.80;;;3.38;;
33738;SDS011;20063;51.730;11.110;2022-07-29T12:12:37;8.55;;;3.55;;
33738;SDS011;20063;51.730;11.110;2022-07-29T12:15:10;13.55;;;4.28;;
33738;SDS011;20063;51.730;11.110;2022-07-29T12:17:40;7.95;;;3.35;;
33738;SDS011;20063;51.730;11.110;2022-07-29T12:20:06;5.90;;;3.35;;
33738;SDS011;20063;51.730;11.110;2022-07-29T12:22:36;6.72;;;3.35;;
33738;SDS011;20063;51.730;11.110;2022-07-29T12:25:06;12.95;;;3.88;;
33738;SDS011;20063;51.730;11.110;2022-07-29T12:27:37;6.97;;;3.63;;
33738;SDS011;20063;51.730;11.110;2022-07-29T12:30:10;8.10;;;3.05;;
33738;SDS011;20063;51.730;11.110;2022-07-29T12:32:39;6.57;;;2.83;;
33738;SDS011;20063;51.730;11.110;2022-07-29T12:35:16;10.23;;;3.58;;
33738;SDS011;20063;51.730;11.110;2022-07-29T12:37:47;15.63;;;3.70;;
33738;SDS011;20063;51.730;11.110;2022-07-29T12:40:15;11.93;;;3.35;;
33738;SDS011;20063;51.730;11.110;2022-07-29T12:43:27;8.40;;;3.33;;
33738;SDS011;20063;51.730;11.110;2022-07-29T12:45:30;5.07;;;2.45;;
33738;SDS011;20063;51.730;11.110;2022-07-29T12:47:56;4.50;;;3.03;;
33738;SDS011;20063;51.730;11.110;2022-07-29T12:50:22;10.60;;;4.03;;
33738;SDS011;20063;51.730;11.110;2022-07-29T12:52:48;12.68;;;3.38;;
33738;SDS011;20063;51.730;11.110;2022-07-29T12:55:13;5.20;;;3.10;;
33738;SDS011;20063;51.730;11.110;2022-07-29T12:57:49;6.88;;;2.85;;
33738;SDS011;20063;51.730;11.110;2022-07-29T13:00:21;10.70;;;3.72;;
33738;SDS011;20063;51.730;11.110;2022-07-29T13:02:54;10.93;;;3.25;;
33738;SDS011;20063;51.730;11.110;2022-07-29T13:05:23;7.93;;;3.25;;
33738;SDS011;20063;51.730;11.110;2022-07-29T13:07:49;12.00;;;3.45;;
33738;SDS011;20063;51.730;11.110;2022-07-29T13:10:21;10.23;;;2.95;;
33738;SDS011;20063;51.730;11.110;2022-07-29T13:15:34;8.77;;;2.80;;
33738;SDS011;20063;51.730;11.110;2022-07-29T13:18:01;11.23;;;3.47;;
33738;SDS011;20063;51.730;11.110;2022-07-29T13:20:28;4.97;;;3.00;;
33738;SDS011;20063;51.730;11.110;2022-07-29T13:23:00;8.52;;;3.40;;
33738;SDS011;20063;51.730;11.110;2022-07-29T13:25:29;4.55;;;2.97;;
33738;SDS011;20063;51.730;11.110;2022-07-29T13:27:56;9.60;;;2.92;;
33738;SDS011;20063;51.730;11.110;2022-07-29T13:30:22;7.22;;;2.90;;
33738;SDS011;20063;51.730;11.110;2022-07-29T13:32:48;8.73;;;3.22;;
33738;SDS011;20063;51.730;11.110;2022-07-29T13:35:15;6.90;;;3.03;;
33738;SDS011;20063;51.730;11.110;2022-07-29T13:37:40;7.38;;;2.95;;
33738;SDS011;20063;51.730;11.110;2022-07-29T13:40:07;7.05;;;2.45;;
33738;SDS011;20063;51.730;11.110;2022-07-29T13:42:33;5.75;;;2.92;;
33738;SDS011;20063;51.730;11.110;2022-07-29T13:44:59;7.15;;;2.95;;
33738;SDS011;20063;51.730;11.110;2022-07-29T13:47:26;5.63;;;2.78;;
33738;SDS011;20063;51.730;11.110;2022-07-29T13:49:52;5.72;;;2.88;;
33738;SDS011;20063;51.730;11.110;2022-07-29T13:52:18;4.55;;;2.90;;
33738;SDS011;20063;51.730;11.110;2022-07-29T13:54:45;5.95;;;2.75;;
33738;SDS011;20063;51.730;11.110;2022-07-29T13:57:11;11.25;;;2.78;;
33738;SDS011;20063;51.730;11.110;2022-07-29T13:59:39;9.80;;;3.10;;
33738;SDS011;20063;51.730;11.110;2022-07-29T14:02:05;10.65;;;3.58;;
33738;SDS011;20063;51.730;11.110;2022-07-29T14:04:31;9.18;;;3.25;;
33738;SDS011;20063;51.730;11.110;2022-07-29T14:06:57;12.10;;;3.60;;
33738;SDS011;20063;51.730;11.110;2022-07-29T14:09:23;5.75;;;2.92;;
33738;SDS011;20063;51.730;11.110;2022-07-29T14:11:48;7.80;;;3.03;;
33738;SDS011;20063;51.730;11.110;2022-07-29T14:14:15;4.20;;;2.40;;
33738;SDS011;20063;51.730;11.110;2022-07-29T14:16:41;10.60;;;3.08;;
33738;SDS011;20063;51.730;11.110;2022-07-29T14:19:07;10.07;;;3.08;;
33738;SDS011;20063;51.730;11.110;2022-07-29T14:21:32;5.55;;;2.92;;
33738;SDS011;20063;51.730;11.110;2022-07-29T14:23:59;10.68;;;3.58;;
33738;SDS011;20063;51.730;11.110;2022-07-29T14:26:25;7.88;;;2.90;;
33738;SDS011;20063;51.730;11.110;2022-07-29T14:28:51;10.00;;;2.75;;
33738;SDS011;20063;51.730;11.110;2022-07-29T14:31:16;6.35;;;2.80;;
33738;SDS011;20063;51.730;11.110;2022-07-29T14:33:42;9.10;;;3.03;;
33738;SDS011;20063;51.730;11.110;2022-07-29T14:36:08;14.07;;;3.50;;
33738;SDS011;20063;51.730;11.110;2022-07-29T14:38:34;8.32;;;3.05;;
33738;SDS011;20063;51.730;11.110;2022-07-29T14:41:00;15.02;;;2.72;;
33738;SDS011;20063;51.730;11.110;2022-07-29T14:43:26;42.22;;;5.13;;
33738;SDS011;20063;51.730;11.110;2022-07-29T14:45:52;11.20;;;2.47;;
33738;SDS011;20063;51.730;11.110;2022-07-29T14:48:17;10.07;;;2.55;;
33738;SDS011;20063;51.730;11.110;2022-07-29T14:50:43;6.70;;;3.20;;
33738;SDS011;20063;51.730;11.110;2022-07-29T14:53:08;8.82;;;2.50;;
33738;SDS011;20063;51.730;11.110;2022-07-29T14:55:34;3.80;;;2.17;;
33738;SDS011;20063;51.730;11.110;2022-07-29T14:58:00;11.63;;;3.55;;
33738;SDS011;20063;51.730;11.110;2022-07-29T15:00:26;9.15;;;3.15;;
33738;SDS011;20063;51.730;11.110;2022-07-29T15:02:51;8.90;;;2.78;;
33738;SDS011;20063;51.730;11.110;2022-07-29T15:05:17;9.80;;;3.03;;
33738;SDS011;20063;51.730;11.110;2022-07-29T15:07:43;6.38;;;2.83;;
33738;SDS011;20063;51.730;11.110;2022-07-29T15:10:08;7.50;;;2.60;;
33738;SDS011;20063;51.730;11.110;2022-07-29T15:12:34;7.60;;;2.67;;
33738;SDS011;20063;51.730;11.110;2022-07-29T15:15:00;3.83;;;2.60;;
33738;SDS011;20063;51.730;11.110;2022-07-29T15:17:25;7.32;;;2.30;;
33738;SDS011;20063;51.730;11.110;2022-07-29T15:19:51;4.60;;;2.25;;
33738;SDS011;20063;51.730;11.110;2022-07-29T15:22:17;4.00;;;2.30;;
33738;SDS011;20063;51.730;11.110;2022-07-29T15:24:42;8.93;;;2.47;;
33738;SDS011;20063;51.730;11.110;2022-07-29T15:27:09;5.43;;;2.60;;
33738;SDS011;20063;51.730;11.110;2022-07-29T15:29:39;15.30;;;3.38;;
33738;SDS011;20063;51.730;11.110;2022-07-29T15:32:08;10.18;;;3.03;;
33738;SDS011;20063;51.730;11.110;2022-07-29T15:34:34;5.55;;;2.67;;
33738;SDS011;20063;51.730;11.110;2022-07-29T15:37:00;4.07;;;2.38;;